createdAt,value
2019-02-24T00:00:43.815Z,98168.58
2019-02-24T00:03:10.418Z,98172.88
2019-02-24T00:05:37.060Z,98171.16
2019-02-24T00:08:03.651Z,98172.59
2019-02-24T00:10:30.252Z,98172.34
2019-02-24T00:12:56.844Z,98172.19
2019-02-24T00:15:23.461Z,98172.30
2019-02-24T00:17:50.055Z,98168.94
2019-02-24T00:20:16.674Z,98166.78
2019-02-24T00:22:43.375Z,98162.46
2019-02-24T00:25:09.981Z,98164.14
2019-02-24T00:27:36.573Z,98154.20
2019-02-24T00:30:03.184Z,98155.04
2019-02-24T00:32:29.889Z,98154.56
2019-02-24T00:34:56.491Z,98148.59
2019-02-24T00:37:23.214Z,98144.91
2019-02-24T00:39:49.807Z,98146.11
2019-02-24T00:42:16.511Z,98149.22
2019-02-24T00:44:43.097Z,98146.70
2019-02-24T00:47:09.723Z,98153.75
2019-02-24T00:49:36.320Z,98150.75
2019-02-24T00:52:02.913Z,98156.25
2019-02-24T00:54:29.608Z,98158.03
2019-02-24T00:56:56.211Z,98165.68
2019-02-24T00:59:22.822Z,98169.00
2019-02-24T01:01:49.781Z,98171.97
2019-02-24T01:04:16.376Z,98165.48
2019-02-24T01:06:42.969Z,98171.87
2019-02-24T01:09:09.597Z,98161.78
2019-02-24T01:11:36.202Z,98167.66
2019-02-24T01:14:02.798Z,98172.92
2019-02-24T01:16:29.426Z,98166.93
2019-02-24T01:18:56.152Z,98169.52
2019-02-24T01:21:22.747Z,98178.36
2019-02-24T01:23:49.426Z,98175.52
2019-02-24T01:26:16.024Z,98168.35
2019-02-24T01:28:42.604Z,98163.09
2019-02-24T01:31:09.206Z,98158.88
2019-02-24T01:33:35.792Z,98164.25
2019-02-24T01:36:02.406Z,98159.31
2019-02-24T01:38:29.003Z,98165.52
2019-02-24T01:40:55.608Z,98151.27
2019-02-24T01:43:22.217Z,98153.67
2019-02-24T01:45:48.862Z,98144.20
2019-02-24T01:48:15.448Z,98135.20
2019-02-24T01:50:42.054Z,98131.11
2019-02-24T01:53:08.680Z,98133.95
2019-02-24T01:55:35.271Z,98132.06
2019-02-24T01:58:01.861Z,98136.16
2019-02-24T02:00:28.438Z,98135.94
2019-02-24T02:02:55.029Z,98132.00
2019-02-24T02:05:21.625Z,98129.95
2019-02-24T02:07:48.229Z,98126.59
2019-02-24T02:10:14.841Z,98130.85
2019-02-24T02:12:41.433Z,98124.97
2019-02-24T02:15:08.031Z,98113.95
2019-02-24T02:17:34.630Z,98115.12
2019-02-24T02:20:01.227Z,98114.02
2019-02-24T02:22:27.818Z,98121.33
2019-02-24T02:24:54.537Z,98121.69
2019-02-24T02:27:21.143Z,98120.38
2019-02-24T02:29:47.741Z,98119.27
2019-02-24T02:32:14.341Z,98126.52
2019-02-24T02:34:40.952Z,98130.88
2019-02-24T02:37:07.554Z,98134.45
2019-02-24T02:39:34.268Z,98133.14
2019-02-24T02:42:00.964Z,98135.77
2019-02-24T02:44:27.748Z,98134.19
2019-02-24T02:46:54.371Z,98130.09
2019-02-24T02:49:20.983Z,98129.45
2019-02-24T02:51:47.585Z,98131.24
2019-02-24T02:54:14.196Z,98132.55
2019-02-24T02:56:40.806Z,98139.97
2019-02-24T02:59:07.588Z,98138.79
2019-02-24T03:01:34.190Z,98137.47
2019-02-24T03:04:00.786Z,98136.84
2019-02-24T03:06:49.403Z,98135.16
2019-02-24T03:09:16.086Z,98126.53
2019-02-24T03:11:42.692Z,98133.11
2019-02-24T03:14:09.277Z,98130.84
2019-02-24T03:16:35.902Z,98126.06
2019-02-24T03:19:02.594Z,98120.55
2019-02-24T03:21:29.296Z,98120.75
2019-02-24T03:23:55.936Z,98116.55
2019-02-24T03:26:22.539Z,98115.91
2019-02-24T03:28:49.234Z,98112.58
2019-02-24T03:31:15.836Z,98116.45
2019-02-24T03:33:44.722Z,98114.78
2019-02-24T03:36:10.930Z,98102.95
2019-02-24T03:38:37.536Z,98109.25
2019-02-24T03:41:04.115Z,98109.36
2019-02-24T03:43:30.806Z,98108.89
2019-02-24T03:45:57.491Z,98104.68
2019-02-24T03:48:24.091Z,98103.94
2019-02-24T03:50:50.678Z,98097.14
2019-02-24T03:53:17.289Z,98100.95
2019-02-24T03:55:43.984Z,98100.27
2019-02-24T03:58:10.581Z,98101.11
2019-02-24T04:00:37.164Z,98101.58
2019-02-24T04:03:03.762Z,98105.89
2019-02-24T04:05:30.364Z,98107.58
2019-02-24T04:07:56.966Z,98115.83
2019-02-24T04:10:23.672Z,98118.55
2019-02-24T04:12:50.289Z,98123.81
2019-02-24T04:15:16.899Z,98123.34
2019-02-24T04:17:43.490Z,98118.55
2019-02-24T04:20:10.112Z,98110.77
2019-02-24T04:22:36.798Z,98123.34
2019-02-24T04:25:03.423Z,98131.11
2019-02-24T04:27:30.014Z,98135.42
2019-02-24T04:29:56.616Z,98125.28
2019-02-24T04:32:23.226Z,98132.90
2019-02-24T04:34:49.826Z,98136.55
2019-02-24T04:37:16.427Z,98128.33
2019-02-24T04:39:43.011Z,98126.84
2019-02-24T04:42:09.622Z,98136.24
2019-02-24T04:44:36.324Z,98131.46
2019-02-24T04:47:02.921Z,98129.67
2019-02-24T04:49:29.636Z,98127.05
2019-02-24T04:51:56.312Z,98126.11
2019-02-24T04:54:22.911Z,98126.58
2019-02-24T04:56:49.519Z,98132.10
2019-02-24T04:59:16.108Z,98129.27
2019-02-24T05:01:42.713Z,98137.89
2019-02-24T05:04:09.399Z,98131.33
2019-02-24T05:06:36.352Z,98131.89
2019-02-24T05:09:03.848Z,98128.14
2019-02-24T05:11:30.866Z,98119.14
2019-02-24T05:13:57.884Z,98107.68
2019-02-24T05:16:24.892Z,98109.20
2019-02-24T05:18:51.932Z,98110.42
2019-02-24T05:21:18.948Z,98107.34
2019-02-24T05:23:45.994Z,98114.62
2019-02-24T05:26:13.041Z,98119.78
2019-02-24T05:28:40.069Z,98119.78
2019-02-24T05:31:07.106Z,98123.20
2019-02-24T05:33:34.151Z,98124.89
2019-02-24T05:36:01.148Z,98123.48
2019-02-24T05:38:28.203Z,98124.05
2019-02-24T05:40:55.216Z,98119.28
2019-02-24T05:43:22.260Z,98119.06
2019-02-24T05:45:49.287Z,98123.98
2019-02-24T05:48:16.336Z,98123.15
2019-02-24T05:50:43.358Z,98120.34
2019-02-24T05:53:10.419Z,98116.55
2019-02-24T05:55:37.460Z,98122.25
2019-02-24T05:58:04.489Z,98122.66
2019-02-24T06:00:31.520Z,98125.96
2019-02-24T06:02:58.523Z,98127.48
2019-02-24T06:05:25.562Z,98125.90
2019-02-24T06:07:52.620Z,98126.37
2019-02-24T06:10:19.655Z,98129.27
2019-02-24T06:12:46.727Z,98118.66
2019-02-24T06:15:13.764Z,98119.87
2019-02-24T06:17:40.784Z,98120.70
2019-02-24T06:20:07.819Z,98121.08
2019-02-24T06:22:34.836Z,98126.17
2019-02-24T06:25:01.887Z,98124.85
2019-02-24T06:27:28.894Z,98126.53
2019-02-24T06:30:04.582Z,98135.16
2019-02-24T06:32:24.862Z,98138.26
2019-02-24T06:34:51.908Z,98143.51
2019-02-24T06:37:18.939Z,98144.72
2019-02-24T06:39:46.095Z,98146.03
2019-02-24T06:42:13.171Z,98148.19
2019-02-24T06:44:40.225Z,98146.30
2019-02-24T06:47:07.240Z,98157.08
2019-02-24T06:49:34.306Z,98163.20
2019-02-24T06:52:01.329Z,98172.57
2019-02-24T06:54:28.374Z,98172.53
2019-02-24T06:56:55.451Z,98176.64
2019-02-24T06:59:22.485Z,98170.67
2019-02-24T07:01:49.511Z,98173.20
2019-02-24T07:04:16.571Z,98169.52
2019-02-24T07:06:43.621Z,98177.94
2019-02-24T07:09:10.684Z,98176.47
2019-02-24T07:11:37.691Z,98178.44
2019-02-24T07:14:04.739Z,98182.55
2019-02-24T07:16:31.757Z,98187.70
2019-02-24T07:18:58.827Z,98180.91
2019-02-24T07:21:25.895Z,98188.45
2019-02-24T07:23:52.953Z,98181.45
2019-02-24T07:26:20.036Z,98181.77
2019-02-24T07:28:47.062Z,98179.89
2019-02-24T07:31:14.106Z,98178.52
2019-02-24T07:33:41.146Z,98180.57
2019-02-24T07:36:08.192Z,98186.98
2019-02-24T07:38:35.224Z,98182.45
2019-02-24T07:41:02.279Z,98188.97
2019-02-24T07:43:29.324Z,98188.91
2019-02-24T07:45:56.352Z,98176.36
2019-02-24T07:48:23.396Z,98171.64
2019-02-24T07:50:50.428Z,98169.08
2019-02-24T07:53:17.484Z,98160.53
2019-02-24T07:55:44.531Z,98149.53
2019-02-24T07:58:11.592Z,98132.14
2019-02-24T08:00:38.631Z,98130.09
2019-02-24T08:03:05.690Z,98124.36
2019-02-24T08:05:32.727Z,98123.63
2019-02-24T08:07:59.803Z,98132.63
2019-02-24T08:10:26.854Z,98129.75
2019-02-24T08:12:53.898Z,98121.47
2019-02-24T08:15:20.938Z,98116.08
2019-02-24T08:17:47.976Z,98120.28
2019-02-24T08:20:15.026Z,98108.87
2019-02-24T08:22:42.054Z,98109.95
2019-02-24T08:25:09.105Z,98110.20
2019-02-24T08:27:36.129Z,98108.25
2019-02-24T08:30:03.342Z,98108.61
2019-02-24T08:32:30.373Z,98101.02
2019-02-24T08:34:57.438Z,98107.73
2019-02-24T08:37:24.480Z,98114.77
2019-02-24T08:39:51.558Z,98131.08
2019-02-24T08:42:18.594Z,98140.87
2019-02-24T08:44:45.626Z,98127.77
2019-02-24T08:47:12.660Z,98129.16
2019-02-24T08:49:39.713Z,98130.70
2019-02-24T08:52:06.747Z,98123.80
2019-02-24T08:54:33.787Z,98122.81
2019-02-24T08:57:00.872Z,98120.38
2019-02-24T08:59:27.899Z,98123.33
2019-02-24T09:01:54.926Z,98128.59
2019-02-24T09:04:21.964Z,98122.31
2019-02-24T09:06:49.044Z,98121.29
2019-02-24T09:09:16.079Z,98141.33
2019-02-24T09:11:43.120Z,98144.37
2019-02-24T09:14:10.152Z,98152.09
2019-02-24T09:16:37.207Z,98164.77
2019-02-24T09:19:04.282Z,98164.64
2019-02-24T09:21:31.329Z,98164.64
2019-02-24T09:23:58.423Z,98154.72
2019-02-24T09:26:25.475Z,98154.72
2019-02-24T09:28:52.527Z,98167.17
2019-02-24T09:31:19.569Z,98165.94
2019-02-24T09:33:46.643Z,98161.10
2019-02-24T09:36:13.701Z,98161.80
2019-02-24T09:38:40.801Z,98172.08
2019-02-24T09:41:07.889Z,98174.37
2019-02-24T09:43:34.922Z,98183.31
2019-02-24T09:46:02.004Z,98185.60
2019-02-24T09:48:29.076Z,98174.87
2019-02-24T09:50:56.127Z,98170.59
2019-02-24T09:53:23.201Z,98171.25
2019-02-24T09:55:50.290Z,98169.58
2019-02-24T09:58:17.362Z,98172.75
2019-02-24T10:00:44.419Z,98186.11
2019-02-24T10:03:11.499Z,98173.11
2019-02-24T10:05:39.074Z,98168.84
2019-02-24T10:08:08.110Z,98162.92
2019-02-24T10:10:35.191Z,98165.52
2019-02-24T10:13:02.271Z,98167.90
2019-02-24T10:15:29.365Z,98160.71
2019-02-24T10:17:56.424Z,98168.15
2019-02-24T10:20:24.961Z,98178.89
2019-02-24T10:22:52.042Z,98194.60
2019-02-24T10:25:19.136Z,98202.17
2019-02-24T10:27:46.216Z,98198.87
2019-02-24T10:30:13.371Z,98183.92
2019-02-24T10:32:40.436Z,98163.87
2019-02-24T10:35:07.507Z,98143.74
2019-02-24T10:37:34.586Z,98146.63
2019-02-24T10:40:01.794Z,98154.34
2019-02-24T10:42:28.884Z,98142.88
2019-02-24T10:44:55.961Z,98144.70
2019-02-24T10:47:23.080Z,98160.01
2019-02-24T10:49:50.195Z,98160.53
2019-02-24T10:52:17.290Z,98176.22
2019-02-24T10:54:44.390Z,98178.02
2019-02-24T10:57:12.950Z,98178.38
2019-02-24T10:59:40.243Z,98185.73
2019-02-24T11:02:07.347Z,98187.37
2019-02-24T11:04:34.430Z,98189.01
2019-02-24T11:07:01.490Z,98184.20
2019-02-24T11:09:28.549Z,98179.77
2019-02-24T11:11:55.610Z,98174.66
2019-02-24T11:14:22.689Z,98173.84
2019-02-24T11:16:49.789Z,98174.18
2019-02-24T11:19:16.872Z,98174.39
2019-02-24T11:21:43.964Z,98166.44
2019-02-24T11:24:11.099Z,98167.31
2019-02-24T11:26:38.163Z,98168.99
2019-02-24T11:29:05.265Z,98160.00
2019-02-24T11:31:38.182Z,98158.50
2019-02-24T11:34:01.366Z,98162.38
2019-02-24T11:36:28.445Z,98159.38
2019-02-24T11:38:55.618Z,98157.73
2019-02-24T11:41:22.670Z,98154.42
2019-02-24T11:43:49.747Z,98162.75
2019-02-24T11:46:16.925Z,98171.09
2019-02-24T11:48:44.023Z,98176.77
2019-02-24T11:51:11.099Z,98173.59
2019-02-24T11:53:38.175Z,98185.42
2019-02-24T11:56:05.289Z,98181.67
2019-02-24T11:58:32.369Z,98174.48
2019-02-24T12:00:59.785Z,98172.80
2019-02-24T12:03:26.869Z,98170.00
2019-02-24T12:05:54.093Z,98169.84
2019-02-24T12:08:21.206Z,98170.38
2019-02-24T12:10:48.297Z,98171.89
2019-02-24T12:13:15.389Z,98165.88
2019-02-24T12:15:42.493Z,98158.38
2019-02-24T12:18:09.563Z,98153.55
2019-02-24T12:20:36.678Z,98154.73
2019-02-24T12:23:03.825Z,98155.63
2019-02-24T12:25:32.196Z,98146.77
2019-02-24T12:27:59.282Z,98147.09
2019-02-24T12:30:26.344Z,98140.43
2019-02-24T12:32:53.452Z,98145.08
2019-02-24T12:35:20.552Z,98136.44
2019-02-24T12:37:50.111Z,98131.39
2019-02-24T12:40:17.203Z,98136.53
2019-02-24T12:42:44.333Z,98135.81
2019-02-24T12:45:11.844Z,98134.95
2019-02-24T12:47:38.964Z,98140.63
2019-02-24T12:50:07.017Z,98131.88
2019-02-24T12:52:34.144Z,98135.70
2019-02-24T12:55:01.217Z,98129.82
2019-02-24T12:57:28.326Z,98134.47
2019-02-24T12:59:55.423Z,98123.98
2019-02-24T13:02:22.516Z,98125.25
2019-02-24T13:04:49.618Z,98121.97
2019-02-24T13:07:16.959Z,98123.64
2019-02-24T13:09:44.053Z,98113.44
2019-02-24T13:12:11.142Z,98116.98
2019-02-24T13:14:38.311Z,98119.34
2019-02-24T13:17:05.359Z,98116.98
2019-02-24T13:19:32.478Z,98117.31
2019-02-24T13:21:59.570Z,98109.13
2019-02-24T13:24:26.671Z,98104.70
2019-02-24T13:26:53.814Z,98103.77
2019-02-24T13:29:20.951Z,98097.08
2019-02-24T13:31:48.065Z,98104.47
2019-02-24T13:34:15.202Z,98101.70
2019-02-24T13:36:42.673Z,98097.44
2019-02-24T13:39:09.806Z,98095.09
2019-02-24T13:41:36.940Z,98094.09
2019-02-24T13:44:04.061Z,98097.45
2019-02-24T13:46:31.420Z,98097.57
2019-02-24T13:48:58.551Z,98098.02
2019-02-24T13:51:25.640Z,98093.83
2019-02-24T13:53:52.765Z,98095.45
2019-02-24T13:56:19.891Z,98087.76
2019-02-24T13:58:47.006Z,98095.77
2019-02-24T14:01:14.086Z,98089.21
2019-02-24T14:03:43.464Z,98091.39
2019-02-24T14:06:10.561Z,98095.89
2019-02-24T14:08:37.701Z,98089.95
2019-02-24T14:11:04.805Z,98083.46
2019-02-24T14:13:31.914Z,98081.01
2019-02-24T14:15:59.099Z,98076.14
2019-02-24T14:18:28.337Z,98077.16
2019-02-24T14:20:55.987Z,98073.59
2019-02-24T14:23:23.101Z,98075.01
2019-02-24T14:25:50.191Z,98076.44
2019-02-24T14:28:17.318Z,98080.36
2019-02-24T14:30:44.448Z,98088.13
2019-02-24T14:33:11.578Z,98101.19
2019-02-24T14:35:38.719Z,98100.71
2019-02-24T14:38:05.859Z,98099.20
2019-02-24T14:40:32.973Z,98097.11
2019-02-24T14:43:00.116Z,98096.55
2019-02-24T14:45:27.253Z,98089.44
2019-02-24T14:47:54.346Z,98085.30
2019-02-24T14:50:21.492Z,98086.38
2019-02-24T14:52:48.643Z,98080.80
2019-02-24T14:55:15.797Z,98087.77
2019-02-24T14:57:44.932Z,98093.69
2019-02-24T15:00:12.092Z,98085.91
2019-02-24T15:02:42.499Z,98088.45
2019-02-24T15:05:08.802Z,98089.25
2019-02-24T15:07:36.290Z,98082.85
2019-02-24T15:10:04.245Z,98083.14
2019-02-24T15:12:31.349Z,98075.73
2019-02-24T15:14:58.475Z,98078.36
2019-02-24T15:17:25.598Z,98083.15
2019-02-24T15:19:52.735Z,98081.64
2019-02-24T15:22:19.895Z,98083.30
2019-02-24T15:24:47.027Z,98078.39
2019-02-24T15:27:14.548Z,98084.16
2019-02-24T15:29:41.662Z,98085.46
2019-02-24T15:32:08.962Z,98090.11
2019-02-24T15:34:36.130Z,98093.91
2019-02-24T15:37:03.292Z,98090.20
2019-02-24T15:39:30.442Z,98099.15
2019-02-24T15:41:57.743Z,98094.33
2019-02-24T15:44:25.724Z,98093.18
2019-02-24T15:46:54.568Z,98086.60
2019-02-24T15:49:21.775Z,98089.17
2019-02-24T15:51:49.021Z,98104.66
2019-02-24T15:54:16.145Z,98104.80
2019-02-24T15:56:43.403Z,98103.55
2019-02-24T15:59:10.536Z,98096.88
2019-02-24T16:01:37.706Z,98099.07
2019-02-24T16:04:04.824Z,98099.17
2019-02-24T16:06:37.166Z,98098.89
2019-02-24T16:09:01.036Z,98102.05
2019-02-24T16:11:32.563Z,98099.60
2019-02-24T16:13:59.747Z,98103.93
2019-02-24T16:16:26.881Z,98106.73
2019-02-24T16:18:54.015Z,98105.69
2019-02-24T16:21:21.444Z,98099.25
2019-02-24T16:23:48.602Z,98092.80
2019-02-24T16:26:15.804Z,98094.15
2019-02-24T16:28:43.007Z,98092.81
2019-02-24T16:31:10.139Z,98094.85
2019-02-24T16:33:37.304Z,98097.70
2019-02-24T16:36:05.543Z,98088.70
2019-02-24T16:38:34.138Z,98095.70
2019-02-24T16:41:01.518Z,98098.49
2019-02-24T16:43:28.617Z,98103.30
2019-02-24T16:45:55.797Z,98108.09
2019-02-24T16:48:24.032Z,98114.36
2019-02-24T16:50:51.224Z,98119.45
2019-02-24T16:53:18.677Z,98125.87
2019-02-24T16:55:45.918Z,98131.57
2019-02-24T16:58:13.398Z,98137.14
2019-02-24T17:00:42.268Z,98143.83
2019-02-24T17:03:09.693Z,98132.91
2019-02-24T17:05:36.990Z,98137.26
2019-02-24T17:08:04.202Z,98142.63
2019-02-24T17:10:31.430Z,98141.89
2019-02-24T17:12:58.677Z,98150.45
2019-02-24T17:15:25.962Z,98160.64
2019-02-24T17:17:55.597Z,98163.53
2019-02-24T17:20:22.732Z,98160.85
2019-02-24T17:22:51.969Z,98161.20
2019-02-24T17:25:19.550Z,98173.72
2019-02-24T17:27:46.836Z,98172.97
2019-02-24T17:30:14.851Z,98177.73
2019-02-24T17:32:44.382Z,98176.83
2019-02-24T17:35:12.027Z,98179.95
2019-02-24T17:37:40.574Z,98179.33
2019-02-24T17:40:09.268Z,98174.34
2019-02-24T17:42:36.477Z,98180.64
2019-02-24T17:45:04.308Z,98178.58
2019-02-24T17:47:32.564Z,98186.48
2019-02-24T17:50:00.410Z,98184.73
2019-02-24T17:52:28.913Z,98188.64
2019-02-24T17:54:56.704Z,98182.88
2019-02-24T17:57:24.262Z,98185.66
2019-02-24T17:59:51.635Z,98189.98
2019-02-24T18:02:19.170Z,98186.52
2019-02-24T18:04:46.967Z,98195.48
2019-02-24T18:07:14.453Z,98189.39
2019-02-24T18:09:41.934Z,98194.16
2019-02-24T18:12:09.594Z,98191.24
2019-02-24T18:14:37.487Z,98187.09
2019-02-24T18:17:04.889Z,98184.34
2019-02-24T18:19:32.611Z,98183.67
2019-02-24T18:22:00.198Z,98183.81
2019-02-24T18:24:28.027Z,98187.11
2019-02-24T18:26:56.095Z,98193.88
2019-02-24T18:29:29.487Z,98189.73
2019-02-24T18:31:57.663Z,98188.25
2019-02-24T18:34:26.874Z,98192.63
2019-02-24T18:36:54.477Z,98195.52
2019-02-24T18:39:22.672Z,98199.28
2019-02-24T18:41:50.046Z,98208.23
2019-02-24T18:44:17.485Z,98207.41
2019-02-24T18:46:45.333Z,98202.63
2019-02-24T18:49:15.482Z,98202.67
2019-02-24T18:51:43.185Z,98200.08
2019-02-24T18:54:11.453Z,98196.80
2019-02-24T18:56:41.328Z,98202.42
2019-02-24T18:59:08.847Z,98204.31
2019-02-24T19:01:36.499Z,98206.39
2019-02-24T19:04:04.403Z,98215.22
2019-02-24T19:06:38.957Z,98221.88
2019-02-24T19:09:01.124Z,98225.92
2019-02-24T19:11:30.568Z,98222.34
2019-02-24T19:14:00.334Z,98227.20
2019-02-24T19:16:27.803Z,98227.63
2019-02-24T19:18:55.455Z,98235.89
2019-02-24T19:21:25.244Z,98234.00
2019-02-24T19:23:52.702Z,98237.23
2019-02-24T19:26:20.018Z,98234.84
2019-02-24T19:28:49.265Z,98230.69
2019-02-24T19:31:16.837Z,98231.02
2019-02-24T19:33:44.390Z,98229.72
2019-02-24T19:36:11.714Z,98234.70
2019-02-24T19:38:39.076Z,98239.22
2019-02-24T19:41:06.841Z,98236.23
2019-02-24T19:43:34.393Z,98246.38
2019-02-24T19:46:02.426Z,98251.23
2019-02-24T19:48:31.360Z,98258.59
2019-02-24T19:50:59.253Z,98261.14
2019-02-24T19:53:29.018Z,98261.75
2019-02-24T19:55:56.637Z,98252.86
2019-02-24T19:58:25.204Z,98263.45
2019-02-24T20:00:54.698Z,98261.28
2019-02-24T20:03:22.078Z,98256.70
2019-02-24T20:05:49.530Z,98254.65
2019-02-24T20:08:19.375Z,98255.72
2019-02-24T20:10:48.218Z,98249.23
2019-02-24T20:13:15.633Z,98250.34
2019-02-24T20:15:42.885Z,98247.16
2019-02-24T20:18:10.139Z,98248.15
2019-02-24T20:20:37.694Z,98248.15
2019-02-24T20:23:05.028Z,98249.37
2019-02-24T20:25:34.559Z,98247.72
2019-02-24T20:28:02.127Z,98233.56
2019-02-24T20:30:30.055Z,98247.13
2019-02-24T20:32:57.398Z,98245.93
2019-02-24T20:35:24.562Z,98245.93
2019-02-24T20:37:51.839Z,98242.46
2019-02-24T20:40:19.081Z,98242.46
2019-02-24T20:42:46.252Z,98242.35
2019-02-24T20:45:16.794Z,98238.79
2019-02-24T20:47:44.002Z,98240.11
2019-02-24T20:50:14.139Z,98240.11
2019-02-24T20:52:41.535Z,98241.43
2019-02-24T20:55:08.943Z,98236.27
2019-02-24T20:57:36.437Z,98238.55
2019-02-24T21:00:07.413Z,98230.87
2019-02-24T21:02:34.581Z,98232.19
2019-02-24T21:05:01.854Z,98233.03
2019-02-24T21:07:29.956Z,98233.88
2019-02-24T21:09:58.957Z,98219.58
2019-02-24T21:12:27.437Z,98217.90
2019-02-24T21:14:56.421Z,98214.53
2019-02-24T21:17:23.831Z,98217.19
2019-02-24T21:19:50.961Z,98223.31
2019-02-24T21:22:18.129Z,98221.62
2019-02-24T21:24:45.244Z,98217.78
2019-02-24T21:27:12.395Z,98230.05
2019-02-24T21:29:39.985Z,98226.33
2019-02-24T21:32:07.087Z,98233.42
2019-02-24T21:34:34.489Z,98238.50
2019-02-24T21:37:01.607Z,98232.98
2019-02-24T21:39:28.716Z,98236.83
2019-02-24T21:41:55.799Z,98232.63
2019-02-24T21:44:22.913Z,98233.95
2019-02-24T21:46:50.279Z,98238.68
2019-02-24T21:49:17.413Z,98238.08
2019-02-24T21:51:44.522Z,98249.13
2019-02-24T21:54:11.644Z,98237.97
2019-02-24T21:56:38.753Z,98231.13
2019-02-24T21:59:05.836Z,98232.69
2019-02-24T22:01:32.946Z,98229.33
2019-02-24T22:04:00.049Z,98230.92
2019-02-24T22:06:27.145Z,98233.69
2019-02-24T22:08:54.242Z,98235.60
2019-02-24T22:11:21.339Z,98237.05
2019-02-24T22:13:48.440Z,98233.69
2019-02-24T22:16:15.541Z,98233.80
2019-02-24T22:18:42.590Z,98235.36
2019-02-24T22:21:09.639Z,98228.64
2019-02-24T22:23:36.685Z,98235.88
2019-02-24T22:26:03.735Z,98232.52
2019-02-24T22:28:30.762Z,98231.80
2019-02-24T22:30:58.070Z,98233.11
2019-02-24T22:33:25.084Z,98223.63
2019-02-24T22:35:52.108Z,98221.83
2019-02-24T22:38:19.123Z,98213.91
2019-02-24T22:40:54.189Z,98213.09
2019-02-24T22:43:15.352Z,98216.21
2019-02-24T22:45:42.431Z,98215.97
2019-02-24T22:48:09.448Z,98215.59
2019-02-24T22:50:36.491Z,98212.34
2019-02-24T22:53:03.543Z,98209.22
2019-02-24T22:55:30.575Z,98206.82
2019-02-24T22:57:57.617Z,98197.97
2019-02-24T23:01:23.431Z,98195.69
2019-02-24T23:03:50.473Z,98200.38
2019-02-24T23:06:17.531Z,98201.54
2019-02-24T23:08:44.573Z,98201.91
2019-02-24T23:11:11.608Z,98210.66
2019-02-24T23:13:39.384Z,98219.66
2019-02-24T23:16:07.433Z,98218.23
2019-02-24T23:18:34.821Z,98215.95
2019-02-24T23:21:01.855Z,98210.19
2019-02-24T23:23:28.910Z,98209.47
2019-02-24T23:25:55.960Z,98209.47
2019-02-24T23:28:23.030Z,98205.98
2019-02-24T23:30:50.081Z,98200.34
2019-02-24T23:33:17.140Z,98199.38
2019-02-24T23:35:44.182Z,98195.42
2019-02-24T23:38:11.251Z,98196.02
2019-02-24T23:40:38.313Z,98197.58
2019-02-24T23:43:05.387Z,98195.81
2019-02-24T23:45:32.546Z,98185.84
2019-02-24T23:47:59.624Z,98193.05
2019-02-24T23:50:26.698Z,98197.73
2019-02-24T23:52:53.782Z,98197.73
2019-02-24T23:55:20.835Z,98202.17
2019-02-24T23:57:47.912Z,98206.61
